Time;durP1;ratioP1;P1;durP2;ratioP2;P2;SDS_P1;SDS_P2;PMS_P1;PMS_P2;Temp;Humidity;BMP_temperature;BMP_pressure;BME280_temperature;BME280_humidity;BME280_pressure;Samples;Min_cycle;Max_cycle;Signal;HPM_P1;HPM_P2
2022/04/23 00:02:01;;;;;;;49.95;25.42;;;;;;;8.78;100.00;98519.47;5052524;28;20093;-87
2022/04/23 00:04:30;;;;;;;39.15;23.95;;;;;;;9.18;100.00;98521.38;5083369;28;20082;-86
2022/04/23 00:06:57;;;;;;;45.22;25.02;;;;;;;9.40;100.00;98543.00;5042859;28;20041;-88
2022/04/23 00:09:23;;;;;;;49.65;25.33;;;;;;;8.92;100.00;98551.72;5047958;28;20040;-88
2022/04/23 00:11:48;;;;;;;52.13;24.83;;;;;;;8.72;100.00;98535.91;5037643;28;20022;-88
2022/04/23 00:14:14;;;;;;;50.92;25.70;;;;;;;9.03;100.00;98525.97;5026254;28;20065;-88
2022/04/23 00:16:40;;;;;;;47.60;25.55;;;;;;;9.24;100.00;98532.88;5043816;28;20189;-88
2022/04/23 00:19:06;;;;;;;57.15;26.02;;;;;;;9.08;100.00;98523.59;5026771;28;20025;-86
2022/04/23 00:21:32;;;;;;;49.08;26.30;;;;;;;8.80;100.00;98521.88;5040233;28;20075;-87
2022/04/23 00:23:58;;;;;;;56.63;25.42;;;;;;;8.84;100.00;98497.72;5043322;28;20505;-89
2022/04/23 00:26:24;;;;;;;49.22;25.25;;;;;;;9.10;100.00;98532.03;5068487;28;20033;-88
2022/04/23 00:28:51;;;;;;;49.03;24.35;;;;;;;8.82;100.00;98499.75;5047133;28;20034;-87
2022/04/23 00:31:16;;;;;;;48.30;24.90;;;;;;;9.06;100.00;98492.34;5063653;28;20029;-87
2022/04/23 00:33:42;;;;;;;47.70;23.70;;;;;;;9.00;100.00;98486.09;5050588;28;20094;-88
2022/04/23 00:36:10;;;;;;;48.10;23.60;;;;;;;8.65;100.00;98478.34;5049891;28;20463;-88
2022/04/23 00:38:37;;;;;;;39.72;23.48;;;;;;;9.17;100.00;98498.81;5043367;28;20038;-88
2022/04/23 00:41:03;;;;;;;42.35;24.23;;;;;;;9.25;100.00;98482.94;5028581;28;20029;-87
2022/04/23 00:43:31;;;;;;;52.38;23.83;;;;;;;9.27;100.00;98512.34;5049906;28;20071;-88
2022/04/23 00:45:57;;;;;;;47.92;23.83;;;;;;;9.25;100.00;98498.66;5051048;28;20042;-87
2022/04/23 00:48:26;;;;;;;50.45;25.83;;;;;;;9.17;100.00;98500.66;5050738;28;20072;-87
2022/04/23 00:50:53;;;;;;;44.72;23.00;;;;;;;9.17;100.00;98485.72;5048887;28;20043;-88
2022/04/23 00:53:19;;;;;;;51.67;24.33;;;;;;;9.35;100.00;98500.06;5052027;28;20045;-89
2022/04/23 00:55:46;;;;;;;49.83;23.27;;;;;;;9.37;100.00;98493.63;5053046;28;20048;-88
2022/04/23 00:58:16;;;;;;;41.75;23.35;;;;;;;9.15;100.00;98495.59;5066367;28;20490;-87
2022/04/23 01:00:43;;;;;;;53.63;23.73;;;;;;;9.34;100.00;98487.97;5049084;28;20083;-87
2022/04/23 01:03:12;;;;;;;42.17;22.65;;;;;;;9.37;100.00;98484.94;5047386;28;20048;-87
2022/04/23 01:05:41;;;;;;;45.28;22.10;;;;;;;9.35;100.00;98507.91;5045374;28;20026;-88
2022/04/23 01:08:07;;;;;;;49.85;21.92;;;;;;;9.36;100.00;98493.81;5033022;28;20035;-88
2022/04/23 01:10:34;;;;;;;59.00;22.23;;;;;;;9.36;100.00;98470.25;5046284;28;20092;-88
2022/04/23 01:12:59;;;;;;;44.95;23.13;;;;;;;9.25;100.00;98477.69;5050795;28;20021;-89
2022/04/23 01:15:25;;;;;;;43.53;22.67;;;;;;;9.36;100.00;98494.63;5065586;28;20044;-86
2022/04/23 01:17:51;;;;;;;51.08;23.00;;;;;;;9.21;100.00;98492.16;5064455;28;20033;-87
2022/04/23 01:20:16;;;;;;;52.47;24.08;;;;;;;9.34;100.00;98487.97;5050438;28;20033;-87
2022/04/23 01:22:44;;;;;;;53.28;24.80;;;;;;;9.33;100.00;98473.25;5046295;28;20566;-87
2022/04/23 01:25:12;;;;;;;48.03;24.17;;;;;;;9.42;100.00;98472.88;5051353;28;20034;-89
2022/04/23 01:27:45;;;;;;;54.17;25.75;;;;;;;9.27;100.00;98483.53;5032427;28;20033;-88
2022/04/23 01:30:11;;;;;;;51.95;25.85;;;;;;;9.14;100.00;98459.94;5050582;28;20029;-87
2022/04/23 01:32:39;;;;;;;48.92;24.75;;;;;;;9.22;100.00;98469.44;5051383;28;20025;-88
2022/04/23 01:35:05;;;;;;;48.28;24.35;;;;;;;9.32;100.00;98471.66;5050178;28;20021;-88
2022/04/23 01:37:31;;;;;;;48.25;25.60;;;;;;;9.33;100.00;98466.19;5048110;28;20029;-88
2022/04/23 01:39:57;;;;;;;51.47;24.30;;;;;;;9.11;100.00;98455.91;5052904;28;20044;-89
2022/04/23 01:42:22;;;;;;;50.53;25.33;;;;;;;9.28;100.00;98471.25;5051562;28;20037;-88
2022/04/23 01:44:49;;;;;;;49.35;23.88;;;;;;;9.20;100.00;98468.81;5068155;28;20137;-88
2022/04/23 01:47:17;;;;;;;52.35;23.92;;;;;;;9.33;100.00;98466.19;5052454;28;20021;-88
2022/04/23 01:49:44;;;;;;;46.25;23.08;;;;;;;9.26;100.00;98470.63;5051165;28;20025;-87
2022/04/23 01:52:11;;;;;;;49.00;22.60;;;;;;;9.40;100.00;98471.44;5032209;28;20049;-88
2022/04/23 01:54:37;;;;;;;48.53;23.73;;;;;;;9.37;100.00;98448.28;5051408;28;20033;-89
2022/04/23 01:57:03;;;;;;;41.60;21.08;;;;;;;9.32;100.00;98456.72;5051433;28;20033;-87
2022/04/23 01:59:30;;;;;;;49.55;21.13;;;;;;;9.40;100.00;98450.50;5050672;28;20034;-88
2022/04/23 02:01:56;;;;;;;41.65;21.02;;;;;;;9.46;100.00;98468.03;5065618;28;20025;-88
2022/04/23 02:04:22;;;;;;;46.35;21.08;;;;;;;9.13;100.00;98429.53;5028732;28;20108;-87
2022/04/23 02:06:48;;;;;;;42.65;20.98;;;;;;;9.16;100.00;98425.72;5042853;28;20029;-87
2022/04/23 02:09:14;;;;;;;51.03;21.83;;;;;;;9.43;100.00;98452.69;5046485;28;20029;-89
2022/04/23 02:11:39;;;;;;;39.78;20.73;;;;;;;9.39;100.00;98448.88;5048340;28;20033;-87
2022/04/23 02:14:05;;;;;;;41.17;19.27;;;;;;;9.42;100.00;98451.91;5065881;28;20030;-87
2022/04/23 02:16:31;;;;;;;47.53;19.92;;;;;;;9.06;100.00;98429.53;5043650;28;20101;-88
2022/04/23 02:18:57;;;;;;;41.70;20.10;;;;;;;9.25;100.00;98443.66;5043971;28;20033;-88
2022/04/23 02:21:24;;;;;;;35.65;18.33;;;;;;;9.09;100.00;98425.72;5045598;28;20047;-88
2022/04/23 02:23:50;;;;;;;43.20;18.52;;;;;;;9.18;100.00;98423.69;5048704;28;20117;-87
2022/04/23 02:26:16;;;;;;;41.13;17.58;;;;;;;9.26;100.00;98426.94;5049636;28;20088;-88
2022/04/23 02:28:42;;;;;;;43.05;18.70;;;;;;;9.28;100.00;98435.38;5050347;28;20100;-88
2022/04/23 02:31:08;;;;;;;41.65;17.95;;;;;;;9.42;100.00;98430.13;5042759;28;20513;-88
2022/04/23 02:33:34;;;;;;;39.90;17.55;;;;;;;9.28;100.00;98411.00;5048024;28;20029;-89
2022/04/23 02:35:59;;;;;;;44.00;16.35;;;;;;;9.17;100.00;98411.63;5048917;28;20037;-87
2022/04/23 02:38:25;;;;;;;40.53;17.35;;;;;;;9.00;100.00;98412.00;5047999;28;20034;-87
2022/04/23 02:40:51;;;;;;;41.10;16.15;;;;;;;9.19;100.00;98414.84;5064343;28;20029;-88
2022/04/23 02:43:16;;;;;;;40.13;16.23;;;;;;;9.22;100.00;98422.28;5049842;28;20036;-89
2022/04/23 02:45:42;;;;;;;44.17;16.70;;;;;;;9.25;100.00;98404.38;5033570;28;20036;-88
2022/04/23 02:48:11;;;;;;;45.70;16.50;;;;;;;9.23;100.00;98422.06;5050002;28;20061;-87
2022/04/23 02:50:38;;;;;;;37.30;15.88;;;;;;;9.19;100.00;98425.31;5064670;28;21000;-87
2022/04/23 02:53:08;;;;;;;40.10;16.33;;;;;;;9.28;100.00;98417.06;5078770;28;20463;-87
2022/04/23 02:55:35;;;;;;;37.05;15.98;;;;;;;9.25;100.00;98404.38;5049077;28;20475;-87
2022/04/23 02:58:09;;;;;;;47.45;16.23;;;;;;;9.39;100.00;98404.34;5048630;28;20061;-87
2022/04/23 03:00:38;;;;;;;39.08;15.65;;;;;;;9.36;100.00;98413.44;5061801;28;20105;-87
2022/04/23 03:03:05;;;;;;;49.08;16.45;;;;;;;9.36;100.00;98396.91;5043268;28;20034;-87
2022/04/23 03:05:31;;;;;;;46.72;19.38;;;;;;;9.25;100.00;98401.75;5045027;28;20063;-87
2022/04/23 03:08:01;;;;;;;40.50;17.30;;;;;;;9.12;100.00;98405.16;5048022;28;20060;-88
2022/04/23 03:10:29;;;;;;;39.35;16.60;;;;;;;9.43;100.00;98398.50;5031722;28;20060;-87
2022/04/23 03:12:57;;;;;;;43.53;19.38;;;;;;;9.06;100.00;98394.69;5044686;28;20029;-87
2022/04/23 03:15:26;;;;;;;48.47;17.42;;;;;;;9.51;100.00;98410.59;5048462;28;20079;-88
2022/04/23 03:18:08;;;;;;;42.40;16.08;;;;;;;9.47;100.00;98396.31;5029436;28;20029;-87
2022/04/23 03:20:35;;;;;;;39.08;17.20;;;;;;;9.67;100.00;98416.44;5028848;28;20029;-87
2022/04/23 03:23:00;;;;;;;40.10;17.17;;;;;;;9.57;100.00;98399.28;5048115;28;20115;-88
2022/04/23 03:25:26;;;;;;;46.47;16.80;;;;;;;9.41;100.00;98386.63;5048567;28;20037;-86
2022/04/23 03:27:52;;;;;;;37.58;16.38;;;;;;;9.47;100.00;98401.53;5049171;28;20030;-87
2022/04/23 03:30:19;;;;;;;39.67;17.10;;;;;;;9.52;100.00;98378.16;5081018;28;20121;-87
2022/04/23 03:32:45;;;;;;;41.65;16.85;;;;;;;9.42;100.00;98399.53;5029979;28;20068;-88
2022/04/23 03:35:10;;;;;;;37.85;16.50;;;;;;;9.15;100.00;98383.00;5046735;28;20037;-88
2022/04/23 03:37:43;;;;;;;47.22;17.73;;;;;;;9.42;100.00;98389.03;5045536;28;20029;-87
2022/04/23 03:40:10;;;;;;;39.38;16.92;;;;;;;9.28;100.00;98383.00;5045147;28;20029;-89
2022/04/23 03:42:36;;;;;;;44.17;16.60;;;;;;;9.50;100.00;98393.28;5047554;28;20040;-88
2022/04/23 03:45:04;;;;;;;46.67;18.55;;;;;;;9.33;100.00;98365.88;5049205;28;20057;-88
2022/04/23 03:47:31;;;;;;;45.72;18.73;;;;;;;9.62;100.00;98397.88;5051518;28;20025;-87
2022/04/23 03:49:57;;;;;;;48.03;17.90;;;;;;;9.58;100.00;98387.81;5049169;28;20097;-88
2022/04/23 03:52:23;;;;;;;48.17;16.98;;;;;;;9.46;100.00;98386.00;5054383;28;20057;-88
2022/04/23 03:54:49;;;;;;;44.03;16.88;;;;;;;9.41;100.00;98379.56;5053835;28;20036;-88
2022/04/23 03:57:14;;;;;;;47.25;16.20;;;;;;;9.46;100.00;98384.22;5052877;28;20061;-88
2022/04/23 03:59:40;;;;;;;47.17;16.30;;;;;;;9.55;100.00;98382.97;5064433;28;20029;-88
2022/04/23 04:02:06;;;;;;;42.05;16.35;;;;;;;9.42;100.00;98380.38;5079866;28;20101;-88
2022/04/23 04:04:32;;;;;;;38.47;16.05;;;;;;;9.49;100.00;98383.81;5053789;28;20045;-89
2022/04/23 04:07:02;;;;;;;40.22;16.30;;;;;;;9.43;100.00;98384.59;5056964;28;20090;-87
2022/04/23 04:09:29;;;;;;;49.35;15.02;;;;;;;9.40;100.00;98372.72;5039835;28;20033;-87
2022/04/23 04:12:06;;;;;;;40.55;15.35;;;;;;;9.36;100.00;98368.09;5055684;28;20040;-87
2022/04/23 04:14:37;;;;;;;41.13;14.68;;;;;;;9.55;100.00;98382.97;5035163;28;20460;-87
2022/04/23 04:17:10;;;;;;;39.80;14.93;;;;;;;9.59;100.00;98383.38;5053888;28;20033;-87
2022/04/23 04:19:36;;;;;;;38.55;15.65;;;;;;;9.77;100.00;98390.59;5054363;28;20063;-86
2022/04/23 04:22:03;;;;;;;33.97;14.70;;;;;;;9.47;100.00;98370.09;5065115;28;20045;-88
2022/04/23 04:24:30;;;;;;;44.47;14.07;;;;;;;9.68;100.00;98383.97;5049309;28;20068;-87
2022/04/23 04:26:57;;;;;;;34.13;12.73;;;;;;;9.48;100.00;98376.94;5081400;28;20034;-88
2022/04/23 04:29:25;;;;;;;46.33;13.15;;;;;;;9.53;100.00;98379.75;5049999;28;20025;-88
2022/04/23 04:31:51;;;;;;;40.25;14.82;;;;;;;9.36;100.00;98373.31;5030891;28;20040;-87
2022/04/23 04:34:20;;;;;;;38.60;13.82;;;;;;;9.47;100.00;98382.38;5045153;28;20025;-88
2022/04/23 04:36:47;;;;;;;37.25;13.07;;;;;;;9.64;100.00;98394.06;5065083;28;20116;-87
2022/04/23 04:39:14;;;;;;;39.45;13.43;;;;;;;9.51;100.00;98371.31;5048856;28;20030;-88
2022/04/23 04:41:40;;;;;;;41.92;14.48;;;;;;;9.64;100.00;98385.41;5051761;28;20056;-88
2022/04/23 04:44:07;;;;;;;42.97;14.57;;;;;;;9.22;100.00;98346.34;5047877;28;20029;-88
2022/04/23 04:46:33;;;;;;;36.08;13.50;;;;;;;9.51;100.00;98392.25;5066289;28;20049;-88
2022/04/23 04:49:00;;;;;;;36.15;13.60;;;;;;;9.48;100.00;98382.19;5033550;28;20037;-88
2022/04/23 04:51:25;;;;;;;29.98;12.82;;;;;;;9.43;100.00;98384.59;5051255;28;20040;-87
2022/04/23 04:53:54;;;;;;;40.30;14.10;;;;;;;9.38;100.00;98381.78;5033654;28;20026;-88
2022/04/23 04:56:20;;;;;;;33.30;12.73;;;;;;;9.50;100.00;98385.41;5042947;28;20025;-87
2022/04/23 04:58:46;;;;;;;35.72;12.80;;;;;;;9.45;100.00;98398.31;5048086;28;20128;-87
2022/04/23 05:01:12;;;;;;;33.38;13.25;;;;;;;9.20;100.00;98375.34;5043813;28;20047;-88
2022/04/23 05:03:40;;;;;;;44.80;14.82;;;;;;;9.38;100.00;98379.16;5050080;28;20029;-88
2022/04/23 05:06:07;;;;;;;34.90;13.15;;;;;;;9.46;100.00;98378.97;5051914;28;20029;-89
2022/04/23 05:08:34;;;;;;;37.53;12.82;;;;;;;9.64;100.00;98388.03;5045388;28;20034;-88
2022/04/23 05:11:00;;;;;;;37.03;12.77;;;;;;;9.55;100.00;98372.50;5048725;28;20029;-88
2022/04/23 05:13:26;;;;;;;37.75;13.35;;;;;;;9.72;100.00;98378.09;5063489;28;20048;-87
2022/04/23 05:15:51;;;;;;;33.67;12.48;;;;;;;9.54;100.00;98357.00;5050881;28;20034;-88
2022/04/23 05:18:17;;;;;;;31.75;12.88;;;;;;;9.45;100.00;98355.59;5050806;28;20029;-89
2022/04/23 05:20:44;;;;;;;34.53;12.95;;;;;;;9.68;100.00;98371.66;5052175;28;20029;-89
2022/04/23 05:23:10;;;;;;;34.28;12.38;;;;;;;9.50;100.00;98363.63;5034667;28;20065;-89
2022/04/23 05:25:36;;;;;;;38.72;12.23;;;;;;;9.60;100.00;98357.97;5052051;28;20056;-88
2022/04/23 05:28:03;;;;;;;37.80;12.63;;;;;;;9.81;100.00;98380.53;5052989;28;20018;-89
2022/04/23 05:30:29;;;;;;;30.45;12.27;;;;;;;9.67;100.00;98369.25;5051540;28;20037;-89
2022/04/23 05:32:55;;;;;;;27.08;11.77;;;;;;;9.74;100.00;98348.28;5051969;28;20248;-88
2022/04/23 05:35:21;;;;;;;34.17;11.98;;;;;;;9.70;100.00;98366.22;5030475;28;20037;-88
2022/04/23 05:37:47;;;;;;;29.30;12.45;;;;;;;9.70;100.00;98389.81;5050805;28;20045;-89
2022/04/23 05:40:13;;;;;;;43.30;12.85;;;;;;;9.49;100.00;98367.25;5066106;28;20112;-88
2022/04/23 05:42:38;;;;;;;28.35;12.18;;;;;;;9.81;100.00;98386.56;5064958;28;20057;-88
2022/04/23 05:45:05;;;;;;;28.00;11.77;;;;;;;9.55;100.00;98362.03;5067384;28;20029;-88
2022/04/23 05:47:31;;;;;;;29.13;13.15;;;;;;;9.69;100.00;98369.88;5035949;28;20049;-88
2022/04/23 05:49:57;;;;;;;37.28;12.27;;;;;;;10.03;100.00;98375.81;5070165;28;20065;-88
2022/04/23 05:52:22;;;;;;;35.03;13.27;;;;;;;9.84;100.00;98380.91;5052884;28;20032;-88
2022/04/23 05:54:48;;;;;;;30.15;13.63;;;;;;;9.82;100.00;98382.13;5034561;28;20077;-90
2022/04/23 05:57:15;;;;;;;37.85;14.93;;;;;;;9.72;100.00;98377.31;5050756;28;20517;-89
2022/04/23 05:59:41;;;;;;;37.92;13.70;;;;;;;9.60;100.00;98379.75;5037262;28;20060;-88
2022/04/23 06:02:08;;;;;;;30.15;13.30;;;;;;;9.75;100.00;98366.41;5053150;28;20025;-88
2022/04/23 06:04:34;;;;;;;32.03;13.63;;;;;;;9.93;100.00;98397.22;5052179;28;20034;-89
2022/04/23 06:07:00;;;;;;;33.90;13.20;;;;;;;9.82;100.00;98369.81;5050601;28;20085;-88
